PH-0114 weather

Mabalacat West Airfield (Kamikaze West)
Mabalacat, Pampanga Province, Philippines

Public forecast

Using degrees Celsius for public forecast. Weather courtesy of forecast.io.

METAR (pilot weather report)

Closest report is Diosdado Macapagal International Airport, 2.0 nm (3.7 km) SSE. Retrieved 2019/09/16 03:00 UTC (31 minutes ago):

RPLC 160300Z 17006KT 5000 HZ SCT020 BKN100 28/25 Q1007 RMK A2974

TAF (pilot weather forecast)

Forecast is more than 12 hours old.

Closest forecast is Diosdado Macapagal International Airport, 2.0 nm (3.7 km) SSE. Retrieved 2019/09/15 00:03 UTC (1 day ago):

TAF RPLC 152300Z 1600/1706 18010KT 7000 SCT020 BKN100 TX29/1606 TN25/1622Z TEMPO 1600/1606 17014KT 5000 -TSRA FEW015CB SCT018 OVC090